createdAt,value
2023-02-19T00:01:53.554Z,2.20
2023-02-19T00:04:23.584Z,1.63
2023-02-19T00:06:51.439Z,1.93
2023-02-19T00:09:21.536Z,1.60
2023-02-19T00:11:51.237Z,2.13
2023-02-19T00:14:21.084Z,1.80
2023-02-19T00:16:49.468Z,1.50
2023-02-19T00:19:19.734Z,1.80
2023-02-19T00:21:47.874Z,1.90
2023-02-19T00:24:16.335Z,1.30
2023-02-19T00:26:46.024Z,1.67
2023-02-19T00:29:16.834Z,1.80
2023-02-19T00:31:45.777Z,1.63
2023-02-19T00:34:14.824Z,2.03
2023-02-19T00:36:44.216Z,2.07
2023-02-19T00:39:15.566Z,1.97
2023-02-19T00:41:43.958Z,1.63
2023-02-19T00:44:13.037Z,1.90
2023-02-19T00:46:43.813Z,2.53
2023-02-19T00:49:17.689Z,1.97
2023-02-19T00:51:45.658Z,1.80
2023-02-19T00:54:14.141Z,2.17
2023-02-19T00:56:42.231Z,2.07
2023-02-19T00:59:10.839Z,1.77
2023-02-19T01:01:39.140Z,2.27
2023-02-19T01:04:08.495Z,2.23
2023-02-19T01:06:36.866Z,1.60
2023-02-19T01:09:07.116Z,1.43
2023-02-19T01:11:35.157Z,1.53
2023-02-19T01:14:04.934Z,1.50
2023-02-19T01:16:32.839Z,1.27
2023-02-19T01:19:00.691Z,1.73
2023-02-19T01:21:31.731Z,1.13
2023-02-19T01:24:00.546Z,1.67
2023-02-19T01:26:30.873Z,1.10
2023-02-19T01:28:58.916Z,1.27
2023-02-19T01:31:27.015Z,1.07
2023-02-19T01:33:57.209Z,1.37
2023-02-19T01:36:25.857Z,1.77
2023-02-19T01:38:55.640Z,1.30
2023-02-19T01:41:25.834Z,1.07
2023-02-19T01:43:59.639Z,1.20
2023-02-19T01:46:28.570Z,0.93
2023-02-19T01:48:59.780Z,1.27
2023-02-19T01:51:28.798Z,0.73
2023-02-19T01:54:01.444Z,1.40
2023-02-19T01:56:31.272Z,1.00
2023-02-19T01:59:00.158Z,1.23
2023-02-19T02:01:28.226Z,1.30
2023-02-19T02:03:56.219Z,1.10
2023-02-19T02:06:25.813Z,1.27
2023-02-19T02:09:14.997Z,1.10
2023-02-19T02:11:48.451Z,0.97
2023-02-19T02:14:17.563Z,1.67
2023-02-19T02:16:54.186Z,0.67
2023-02-19T02:20:11.292Z,1.23
2023-02-19T02:22:44.618Z,1.10
2023-02-19T02:25:36.293Z,1.00
2023-02-19T02:28:23.488Z,1.13
2023-02-19T02:30:55.503Z,0.80
2023-02-19T02:33:32.973Z,0.60
2023-02-19T02:36:04.639Z,0.77
2023-02-19T02:38:37.272Z,0.20
2023-02-19T02:41:06.571Z,0.50
2023-02-19T02:43:34.676Z,0.50
2023-02-19T02:46:03.795Z,0.30
2023-02-19T02:48:36.828Z,0.10
2023-02-19T02:51:11.618Z,0.50
2023-02-19T02:54:03.295Z,0.10
2023-02-19T02:56:32.821Z,0.10
2023-02-19T02:59:03.889Z,0.87
2023-02-19T03:01:54.768Z,0.20
2023-02-19T03:04:26.465Z,0.37
2023-02-19T03:06:55.409Z,0.50
2023-02-19T03:09:30.307Z,0.50
2023-02-19T03:12:19.327Z,0.57
2023-02-19T03:15:07.140Z,0.77
2023-02-19T03:17:59.417Z,0.10
2023-02-19T03:20:28.124Z,0.33
2023-02-19T03:22:58.103Z,0.93
2023-02-19T03:25:47.125Z,0.67
2023-02-19T03:28:17.932Z,0.27
2023-02-19T03:30:48.964Z,0.30
2023-02-19T03:33:22.565Z,0.20
2023-02-19T03:35:54.993Z,0.50
2023-02-19T03:38:27.561Z,0.50
2023-02-19T03:41:00.882Z,0.50
2023-02-19T03:43:38.931Z,0.50
2023-02-19T03:46:12.644Z,0.30
2023-02-19T03:48:49.258Z,0.43
2023-02-19T03:51:31.235Z,0.20
2023-02-19T03:54:06.569Z,0.30
2023-02-19T03:56:38.406Z,0.20
2023-02-19T03:59:11.152Z,0.47
2023-02-19T04:01:43.236Z,0.20
2023-02-19T04:04:17.871Z,0.27
2023-02-19T04:06:52.782Z,0.50
2023-02-19T04:09:22.764Z,0.27
2023-02-19T04:11:52.524Z,0.50
2023-02-19T04:14:24.855Z,0.20
2023-02-19T04:16:57.636Z,0.40
2023-02-19T04:19:29.038Z,0.50
2023-02-19T04:21:57.735Z,0.53
2023-02-19T04:24:30.454Z,0.30
2023-02-19T04:26:59.476Z,0.30
2023-02-19T04:29:27.266Z,0.30
2023-02-19T04:31:55.149Z,0.40
2023-02-19T04:34:23.208Z,0.93
2023-02-19T04:36:52.724Z,0.47
2023-02-19T04:39:20.662Z,0.60
2023-02-19T04:41:48.504Z,0.33
2023-02-19T04:44:16.307Z,0.67
2023-02-19T04:46:44.234Z,0.40
2023-02-19T04:49:12.474Z,0.83
2023-02-19T04:51:41.277Z,0.43
2023-02-19T04:54:10.453Z,0.60
2023-02-19T04:56:38.294Z,0.27
2023-02-19T04:59:06.121Z,0.57
2023-02-19T05:01:34.073Z,0.63
2023-02-19T05:04:01.882Z,0.27
2023-02-19T05:06:29.695Z,0.30
2023-02-19T05:08:57.598Z,0.20
2023-02-19T05:11:26.939Z,0.30
2023-02-19T05:13:56.431Z,0.23
2023-02-19T05:16:25.020Z,0.57
2023-02-19T05:18:52.830Z,0.33
2023-02-19T05:21:20.589Z,0.17
2023-02-19T05:23:48.344Z,0.47
2023-02-19T05:26:18.282Z,0.30
2023-02-19T05:28:48.688Z,0.33
2023-02-19T05:31:16.578Z,0.80
2023-02-19T05:33:45.673Z,0.27
2023-02-19T05:36:14.986Z,0.53
2023-02-19T05:38:42.844Z,0.30
2023-02-19T05:41:12.636Z,0.47
2023-02-19T05:43:41.187Z,0.60
2023-02-19T05:46:12.169Z,0.10
2023-02-19T05:48:40.468Z,0.40
2023-02-19T05:51:10.140Z,0.60
2023-02-19T05:53:38.893Z,0.33
2023-02-19T05:56:18.441Z,0.40
2023-02-19T05:58:46.356Z,0.60
2023-02-19T06:01:17.671Z,0.23
2023-02-19T06:03:45.578Z,0.23
2023-02-19T06:06:15.291Z,0.40
2023-02-19T06:08:43.270Z,0.20
2023-02-19T06:11:11.705Z,0.33
2023-02-19T06:13:39.715Z,0.60
2023-02-19T06:16:08.563Z,1.50
2023-02-19T06:18:40.328Z,0.50
2023-02-19T06:21:10.454Z,0.47
2023-02-19T06:23:38.788Z,0.80
2023-02-19T06:26:08.710Z,0.73
2023-02-19T06:28:37.136Z,0.33
2023-02-19T06:31:05.521Z,0.80
2023-02-19T06:33:33.477Z,0.73
2023-02-19T06:36:04.438Z,0.80
2023-02-19T06:38:33.114Z,0.67
2023-02-19T06:41:02.359Z,0.60
2023-02-19T06:43:30.667Z,1.23
2023-02-19T06:45:59.274Z,0.60
2023-02-19T06:48:27.236Z,0.60
2023-02-19T06:50:55.062Z,1.10
2023-02-19T06:53:24.746Z,1.30
2023-02-19T06:55:59.576Z,1.17
2023-02-19T06:58:27.626Z,1.30
2023-02-19T07:00:55.961Z,1.03
2023-02-19T07:03:24.210Z,0.47
2023-02-19T07:05:51.948Z,0.77
2023-02-19T07:08:19.844Z,0.70
2023-02-19T07:10:56.771Z,1.20
2023-02-19T07:13:24.916Z,1.13
2023-02-19T07:15:52.768Z,1.40
2023-02-19T07:18:20.586Z,0.53
2023-02-19T07:20:48.479Z,1.63
2023-02-19T07:23:16.334Z,1.33
2023-02-19T07:25:44.380Z,1.03
2023-02-19T07:28:13.548Z,0.87
2023-02-19T07:30:41.670Z,0.77
2023-02-19T07:33:11.478Z,1.30
2023-02-19T07:35:39.304Z,1.13
2023-02-19T07:38:07.181Z,1.87
2023-02-19T07:40:36.035Z,1.10
2023-02-19T07:43:03.961Z,0.90
2023-02-19T07:45:33.097Z,1.13
2023-02-19T07:48:00.991Z,0.97
2023-02-19T07:50:28.747Z,1.97
2023-02-19T07:52:56.798Z,1.47
2023-02-19T07:55:24.591Z,0.93
2023-02-19T07:57:52.634Z,1.03
2023-02-19T08:00:20.950Z,1.03
2023-02-19T08:03:02.965Z,1.50
2023-02-19T08:05:33.024Z,1.30
2023-02-19T08:08:01.646Z,1.67
2023-02-19T08:10:46.827Z,1.00
2023-02-19T08:13:23.561Z,1.33
2023-02-19T08:15:53.166Z,1.00
2023-02-19T08:18:25.037Z,1.00
2023-02-19T08:20:53.344Z,0.93
2023-02-19T08:23:21.613Z,1.10
2023-02-19T08:25:51.216Z,0.77
2023-02-19T08:28:19.721Z,0.80
2023-02-19T08:30:48.651Z,0.60
2023-02-19T08:33:18.293Z,0.80
2023-02-19T08:35:48.044Z,0.90
2023-02-19T08:38:17.234Z,0.83
2023-02-19T08:40:45.398Z,0.80
2023-02-19T08:43:15.209Z,0.60
2023-02-19T08:45:44.962Z,0.27
2023-02-19T08:48:13.605Z,1.03
2023-02-19T08:50:41.786Z,0.57
2023-02-19T08:53:11.180Z,0.47
2023-02-19T08:55:39.816Z,0.50
2023-02-19T08:58:07.656Z,0.60
2023-02-19T09:00:35.747Z,0.83
2023-02-19T09:03:03.552Z,0.70
2023-02-19T09:05:31.414Z,0.30
2023-02-19T09:07:59.166Z,0.97
2023-02-19T09:10:28.370Z,0.50
2023-02-19T09:12:57.116Z,0.50
2023-02-19T09:15:25.896Z,1.13
2023-02-19T09:17:53.879Z,0.30
2023-02-19T09:20:22.103Z,0.80
2023-02-19T09:22:49.882Z,0.63
2023-02-19T09:25:17.911Z,0.20
2023-02-19T09:27:47.139Z,0.17
2023-02-19T09:30:15.055Z,0.10
2023-02-19T09:32:42.913Z,0.20
2023-02-19T09:35:10.673Z,0.10
2023-02-19T09:37:38.455Z,0.43
2023-02-19T09:40:06.770Z,0.20
2023-02-19T09:42:34.744Z,0.20
2023-02-19T09:45:06.395Z,0.10
2023-02-19T09:47:35.456Z,0.33
2023-02-19T09:50:08.282Z,0.30
2023-02-19T09:52:39.753Z,0.13
2023-02-19T09:55:15.917Z,0.53
2023-02-19T09:57:44.732Z,0.10
2023-02-19T10:00:24.779Z,0.53
2023-02-19T10:02:54.520Z,0.20
2023-02-19T10:05:24.519Z,0.17
2023-02-19T10:07:54.346Z,0.20
2023-02-19T10:10:28.311Z,0.20
2023-02-19T10:13:00.440Z,0.10
2023-02-19T10:15:33.364Z,0.10
2023-02-19T10:18:01.278Z,0.13
2023-02-19T10:20:29.102Z,0.20
2023-02-19T10:23:02.442Z,0.00
2023-02-19T10:25:31.887Z,0.10
2023-02-19T10:28:00.394Z,0.30
2023-02-19T10:30:33.027Z,0.20
2023-02-19T10:33:04.569Z,0.23
2023-02-19T10:35:37.038Z,0.27
2023-02-19T10:38:08.199Z,0.50
2023-02-19T10:40:36.010Z,0.13
2023-02-19T10:43:05.673Z,0.30
2023-02-19T10:45:44.307Z,0.07
2023-02-19T10:48:25.527Z,0.00
2023-02-19T10:51:00.042Z,0.57
2023-02-19T10:53:41.663Z,0.20
2023-02-19T10:56:11.389Z,0.00
2023-02-19T10:58:40.195Z,0.30
2023-02-19T11:01:19.476Z,0.50
2023-02-19T11:03:48.828Z,0.10
2023-02-19T11:06:18.331Z,0.10
2023-02-19T11:08:54.135Z,0.27
2023-02-19T11:11:29.581Z,0.10
2023-02-19T11:13:58.793Z,0.30
2023-02-19T11:16:39.780Z,0.30
2023-02-19T11:19:07.730Z,0.20
2023-02-19T11:21:35.856Z,0.20
2023-02-19T11:24:04.688Z,0.40
2023-02-19T11:26:38.097Z,0.30
2023-02-19T11:29:19.652Z,0.10
2023-02-19T11:31:48.935Z,0.00
2023-02-19T11:34:30.439Z,0.43
2023-02-19T11:37:13.500Z,0.10
2023-02-19T11:39:45.422Z,0.10
2023-02-19T11:42:41.426Z,0.43
2023-02-19T11:45:27.369Z,0.07
2023-02-19T11:48:33.406Z,0.27
2023-02-19T11:51:16.821Z,0.00
2023-02-19T11:53:49.953Z,0.03
2023-02-19T11:56:20.350Z,0.10
2023-02-19T11:59:01.361Z,0.40
2023-02-19T12:01:46.068Z,0.10
2023-02-19T12:04:48.925Z,0.10
2023-02-19T12:07:24.361Z,0.33
2023-02-19T12:10:09.987Z,0.00
2023-02-19T12:12:51.441Z,0.53
2023-02-19T12:15:40.712Z,0.20
2023-02-19T12:18:31.267Z,0.20
2023-02-19T12:21:12.832Z,0.10
2023-02-19T12:23:58.581Z,0.10
2023-02-19T12:26:30.134Z,0.03
2023-02-19T12:29:15.675Z,0.10
2023-02-19T12:32:18.834Z,0.20
2023-02-19T12:35:00.447Z,0.10
2023-02-19T12:37:42.283Z,0.30
2023-02-19T12:40:26.330Z,0.43
2023-02-19T12:43:06.106Z,0.17
2023-02-19T12:45:39.218Z,0.30
2023-02-19T12:48:15.912Z,0.30
2023-02-19T12:50:46.781Z,0.20
2023-02-19T12:53:26.277Z,0.30
2023-02-19T12:55:55.189Z,0.47
2023-02-19T12:58:29.990Z,0.30
2023-02-19T13:00:59.863Z,0.20
2023-02-19T13:03:33.401Z,0.00
2023-02-19T13:06:09.704Z,0.10
2023-02-19T13:09:03.588Z,0.17
2023-02-19T13:11:38.194Z,0.13
2023-02-19T13:14:12.688Z,0.10
2023-02-19T13:16:46.836Z,0.00
2023-02-19T13:19:15.198Z,0.03
2023-02-19T13:22:02.558Z,0.47
2023-02-19T13:24:35.919Z,0.27
2023-02-19T13:27:44.805Z,0.20
2023-02-19T13:30:33.531Z,0.20
2023-02-19T13:33:12.622Z,0.20
2023-02-19T13:36:06.894Z,0.20
2023-02-19T13:38:38.515Z,0.10
2023-02-19T13:41:17.510Z,0.23
2023-02-19T13:43:46.931Z,0.10
2023-02-19T13:46:17.811Z,0.07
2023-02-19T13:48:45.750Z,0.17
2023-02-19T13:51:51.096Z,0.20
2023-02-19T13:54:28.526Z,0.70
2023-02-19T13:57:28.674Z,0.20
2023-02-19T13:59:58.046Z,0.53
2023-02-19T14:02:30.666Z,0.17
2023-02-19T14:05:00.968Z,0.20
2023-02-19T14:07:55.495Z,0.17
2023-02-19T14:10:57.646Z,0.10
2023-02-19T14:14:06.684Z,0.23
2023-02-19T14:16:53.558Z,0.03
2023-02-19T14:19:49.773Z,0.10
2023-02-19T14:22:50.002Z,0.43
2023-02-19T14:25:39.351Z,0.37
2023-02-19T14:28:18.027Z,0.20
2023-02-19T14:30:51.533Z,0.60
2023-02-19T14:33:22.107Z,0.07
2023-02-19T14:35:54.770Z,0.30
2023-02-19T14:38:26.184Z,0.37
2023-02-19T14:40:56.208Z,0.20
2023-02-19T14:43:26.746Z,0.40
2023-02-19T14:45:59.904Z,0.20
2023-02-19T14:48:32.905Z,0.00
2023-02-19T14:51:05.575Z,0.10
2023-02-19T14:53:38.639Z,0.37
2023-02-19T14:56:08.643Z,0.20
2023-02-19T14:58:36.922Z,0.13
2023-02-19T15:01:09.540Z,0.10
2023-02-19T15:03:38.727Z,0.10
2023-02-19T15:06:08.959Z,0.13
2023-02-19T15:08:40.717Z,0.07
2023-02-19T15:11:12.842Z,0.10
2023-02-19T15:13:45.518Z,0.30
2023-02-19T15:16:20.118Z,0.20
2023-02-19T15:18:49.601Z,0.20
2023-02-19T15:21:24.862Z,0.30
2023-02-19T15:23:54.946Z,0.20
2023-02-19T15:26:24.630Z,0.10
2023-02-19T15:29:00.601Z,0.33
2023-02-19T15:31:30.439Z,0.10
2023-02-19T15:33:58.338Z,0.20
2023-02-19T15:36:32.244Z,0.63
2023-02-19T15:39:02.605Z,0.30
2023-02-19T15:41:35.405Z,0.10
2023-02-19T15:44:18.529Z,0.20
2023-02-19T15:46:49.236Z,0.00
2023-02-19T15:49:21.998Z,0.70
2023-02-19T15:51:55.519Z,0.33
2023-02-19T15:54:27.739Z,0.30
2023-02-19T15:56:58.647Z,0.30
2023-02-19T15:59:30.126Z,0.10
2023-02-19T16:02:00.735Z,0.40
2023-02-19T16:04:28.626Z,0.10
2023-02-19T16:06:58.946Z,0.17
2023-02-19T16:09:31.976Z,0.10
2023-02-19T16:12:01.418Z,0.40
2023-02-19T16:14:34.379Z,0.43
2023-02-19T16:17:13.072Z,0.20
2023-02-19T16:19:48.100Z,0.23
2023-02-19T16:22:19.788Z,0.20
2023-02-19T16:24:50.159Z,0.43
2023-02-19T16:27:30.216Z,0.10
2023-02-19T16:29:58.566Z,0.33
2023-02-19T16:32:28.003Z,0.17
2023-02-19T16:34:55.818Z,0.30
2023-02-19T16:37:38.243Z,0.20
2023-02-19T16:40:54.282Z,0.20
2023-02-19T16:43:29.118Z,0.67
2023-02-19T16:45:56.914Z,0.40
2023-02-19T16:48:26.885Z,1.20
2023-02-19T16:50:54.693Z,0.80
2023-02-19T16:53:25.267Z,0.60
2023-02-19T16:55:53.405Z,0.63
2023-02-19T16:58:21.379Z,1.00
2023-02-19T17:00:49.271Z,0.90
2023-02-19T17:03:20.701Z,0.83
2023-02-19T17:05:50.667Z,1.37
2023-02-19T17:08:31.079Z,0.70
2023-02-19T17:10:59.334Z,0.87
2023-02-19T17:13:27.263Z,1.00
2023-02-19T17:15:55.061Z,0.43
2023-02-19T17:18:23.151Z,0.70
2023-02-19T17:20:57.155Z,0.50
2023-02-19T17:23:25.169Z,0.60
2023-02-19T17:25:52.924Z,0.77
2023-02-19T17:28:21.044Z,0.70
2023-02-19T17:30:49.224Z,0.90
2023-02-19T17:33:17.316Z,1.33
2023-02-19T17:35:45.477Z,0.60
2023-02-19T17:38:15.595Z,0.40
2023-02-19T17:40:45.041Z,0.90
2023-02-19T17:43:12.823Z,0.53
2023-02-19T17:45:41.047Z,1.00
2023-02-19T17:48:13.252Z,0.90
2023-02-19T17:50:41.839Z,1.90
2023-02-19T17:53:10.299Z,1.67
2023-02-19T17:55:39.453Z,1.17
2023-02-19T17:58:07.192Z,1.07
2023-02-19T18:00:36.633Z,1.30
2023-02-19T18:03:07.185Z,0.90
2023-02-19T18:05:34.955Z,0.90
2023-02-19T18:08:02.828Z,0.70
2023-02-19T18:10:30.762Z,0.57
2023-02-19T18:12:59.918Z,0.97
2023-02-19T18:15:28.060Z,0.50
2023-02-19T18:17:57.073Z,0.40
2023-02-19T18:20:27.299Z,0.77
2023-02-19T18:22:56.711Z,0.70
2023-02-19T18:25:25.452Z,1.10
2023-02-19T18:27:54.049Z,1.13
2023-02-19T18:30:24.059Z,0.60
2023-02-19T18:32:52.414Z,0.90
2023-02-19T18:35:23.615Z,1.40
2023-02-19T18:37:52.831Z,0.73
2023-02-19T18:40:21.836Z,1.00
2023-02-19T18:42:49.747Z,1.10
2023-02-19T18:45:19.186Z,0.37
2023-02-19T18:47:49.636Z,1.17
2023-02-19T18:50:19.951Z,0.93
2023-02-19T18:52:47.840Z,0.70
2023-02-19T18:55:16.100Z,0.50
2023-02-19T18:57:45.240Z,0.80
2023-02-19T19:00:19.236Z,0.60
2023-02-19T19:02:50.610Z,0.70
2023-02-19T19:05:22.590Z,0.80
2023-02-19T19:07:50.998Z,0.60
2023-02-19T19:10:20.032Z,0.50
2023-02-19T19:12:48.227Z,0.73
2023-02-19T19:15:18.315Z,1.03
2023-02-19T19:17:47.989Z,1.23
2023-02-19T19:20:17.762Z,0.40
2023-02-19T19:22:45.804Z,0.77
2023-02-19T19:25:13.842Z,0.10
2023-02-19T19:27:42.081Z,0.40
2023-02-19T19:30:10.647Z,0.60
2023-02-19T19:32:38.934Z,0.30
2023-02-19T19:35:12.092Z,0.50
2023-02-19T19:37:41.256Z,0.40
2023-02-19T19:40:10.479Z,0.80
2023-02-19T19:42:38.408Z,0.53
2023-02-19T19:45:07.001Z,0.50
2023-02-19T19:47:34.770Z,0.40
2023-02-19T19:50:02.890Z,0.50
2023-02-19T19:52:32.095Z,0.40
2023-02-19T19:54:59.959Z,0.40
2023-02-19T19:57:27.712Z,0.70
2023-02-19T19:59:55.605Z,0.60
2023-02-19T20:02:24.719Z,0.70
2023-02-19T20:04:52.591Z,0.87
2023-02-19T20:07:22.664Z,0.57
2023-02-19T20:09:51.821Z,0.57
2023-02-19T20:12:19.589Z,0.40
2023-02-19T20:14:48.314Z,0.30
2023-02-19T20:17:16.342Z,0.40
2023-02-19T20:19:44.689Z,0.40
2023-02-19T20:22:13.117Z,0.73
2023-02-19T20:24:40.883Z,0.57
2023-02-19T20:27:10.530Z,0.40
2023-02-19T20:29:38.421Z,0.40
2023-02-19T20:32:06.442Z,0.67
2023-02-19T20:34:34.284Z,0.40
2023-02-19T20:37:02.209Z,0.40
2023-02-19T20:39:30.333Z,0.60
2023-02-19T20:41:59.932Z,0.53
2023-02-19T20:44:30.378Z,0.40
2023-02-19T20:47:00.348Z,0.40
2023-02-19T20:49:30.193Z,0.40
2023-02-19T20:52:00.571Z,0.60
2023-02-19T20:54:29.829Z,0.73
2023-02-19T20:56:59.713Z,0.50
2023-02-19T20:59:34.719Z,0.30
2023-02-19T21:02:03.649Z,0.80
2023-02-19T21:04:31.761Z,0.93
2023-02-19T21:06:59.792Z,0.57
2023-02-19T21:09:27.862Z,0.40
2023-02-19T21:11:55.617Z,0.40
2023-02-19T21:14:23.475Z,0.57
2023-02-19T21:16:52.597Z,0.60
2023-02-19T21:19:21.543Z,0.60
2023-02-19T21:21:49.363Z,0.23
2023-02-19T21:24:17.318Z,0.40
2023-02-19T21:26:45.434Z,0.60
2023-02-19T21:29:18.514Z,0.50
2023-02-19T21:31:48.465Z,0.40
2023-02-19T21:34:19.728Z,0.40
2023-02-19T21:36:47.712Z,0.20
2023-02-19T21:39:17.529Z,0.53
2023-02-19T21:41:45.498Z,0.20
2023-02-19T21:44:13.532Z,1.10
2023-02-19T21:46:41.352Z,0.20
2023-02-19T21:49:13.732Z,0.40
2023-02-19T21:51:44.607Z,0.40
2023-02-19T21:54:16.454Z,0.40
2023-02-19T21:56:44.369Z,0.40
2023-02-19T21:59:12.260Z,0.70
2023-02-19T22:01:41.963Z,0.70
2023-02-19T22:04:11.454Z,0.50
2023-02-19T22:06:40.490Z,0.30
2023-02-19T22:09:10.783Z,0.50
2023-02-19T22:11:38.675Z,0.53
2023-02-19T22:14:07.298Z,0.30
2023-02-19T22:16:35.182Z,0.57
2023-02-19T22:19:02.990Z,0.60
2023-02-19T22:21:32.361Z,0.60
2023-02-19T22:24:00.971Z,0.40
2023-02-19T22:26:33.590Z,0.30
2023-02-19T22:29:05.732Z,1.03
2023-02-19T22:31:34.663Z,0.27
2023-02-19T22:34:02.673Z,0.70
2023-02-19T22:36:32.977Z,0.37
2023-02-19T22:39:00.876Z,0.53
2023-02-19T22:41:30.137Z,0.80
2023-02-19T22:43:59.368Z,0.80
2023-02-19T22:46:29.499Z,0.73
2023-02-19T22:48:57.586Z,0.40
2023-02-19T22:51:26.373Z,1.10
2023-02-19T22:53:55.752Z,1.00
2023-02-19T22:56:25.241Z,0.40
2023-02-19T22:58:55.220Z,0.63
2023-02-19T23:01:24.170Z,0.60
2023-02-19T23:03:53.955Z,0.77
2023-02-19T23:06:25.365Z,0.60
2023-02-19T23:08:53.339Z,0.50
2023-02-19T23:11:22.566Z,0.23
2023-02-19T23:13:50.502Z,0.90
2023-02-19T23:16:19.909Z,0.87
2023-02-19T23:18:48.160Z,0.37
2023-02-19T23:21:17.089Z,0.50
2023-02-19T23:23:46.194Z,0.70
2023-02-19T23:26:15.291Z,0.50
2023-02-19T23:28:44.465Z,0.50
2023-02-19T23:31:13.406Z,0.50
2023-02-19T23:33:43.361Z,0.80
2023-02-19T23:36:12.041Z,0.60
2023-02-19T23:38:40.010Z,0.40
2023-02-19T23:41:11.407Z,0.50
2023-02-19T23:43:39.540Z,0.90
2023-02-19T23:46:07.719Z,0.33
2023-02-19T23:48:35.976Z,0.50
2023-02-19T23:51:05.321Z,0.53
2023-02-19T23:53:33.222Z,0.40
2023-02-19T23:56:00.974Z,0.57
2023-02-19T23:58:28.903Z,0.97
